sensor_id;sensor_type;location;lat;lon;timestamp;temperature;humidity
14378;DHT22;7272;53.668;9.578;2023-02-13T00:01:13;8.70;99.90
14378;DHT22;7272;53.668;9.578;2023-02-13T00:04:15;8.60;99.90
14378;DHT22;7272;53.668;9.578;2023-02-13T00:07:17;8.60;99.90
14378;DHT22;7272;53.668;9.578;2023-02-13T00:10:21;8.70;99.90
14378;DHT22;7272;53.668;9.578;2023-02-13T00:13:23;8.60;99.90
14378;DHT22;7272;53.668;9.578;2023-02-13T00:16:24;8.60;99.90
14378;DHT22;7272;53.668;9.578;2023-02-13T00:19:26;8.60;99.90
14378;DHT22;7272;53.668;9.578;2023-02-13T00:22:28;8.60;99.90
14378;DHT22;7272;53.668;9.578;2023-02-13T00:25:32;8.60;99.90
14378;DHT22;7272;53.668;9.578;2023-02-13T00:28:34;8.60;99.90
14378;DHT22;7272;53.668;9.578;2023-02-13T00:31:37;8.60;99.90
14378;DHT22;7272;53.668;9.578;2023-02-13T00:34:39;8.60;99.90
14378;DHT22;7272;53.668;9.578;2023-02-13T00:37:43;8.60;99.90
14378;DHT22;7272;53.668;9.578;2023-02-13T00:40:46;8.60;99.90
14378;DHT22;7272;53.668;9.578;2023-02-13T00:43:49;8.60;99.90
14378;DHT22;7272;53.668;9.578;2023-02-13T00:46:51;8.60;99.90
14378;DHT22;7272;53.668;9.578;2023-02-13T00:49:53;8.60;99.90
14378;DHT22;7272;53.668;9.578;2023-02-13T00:52:54;8.60;99.90
14378;DHT22;7272;53.668;9.578;2023-02-13T00:55:58;8.60;99.90
14378;DHT22;7272;53.668;9.578;2023-02-13T00:58:59;8.60;99.90
14378;DHT22;7272;53.668;9.578;2023-02-13T01:02:01;8.70;99.90
14378;DHT22;7272;53.668;9.578;2023-02-13T01:05:05;8.70;99.90
14378;DHT22;7272;53.668;9.578;2023-02-13T01:08:07;8.70;99.90
14378;DHT22;7272;53.668;9.578;2023-02-13T01:11:10;8.60;99.90
14378;DHT22;7272;53.668;9.578;2023-02-13T01:14:12;8.60;99.90
14378;DHT22;7272;53.668;9.578;2023-02-13T01:17:15;8.60;99.90
14378;DHT22;7272;53.668;9.578;2023-02-13T01:20:17;8.50;99.90
14378;DHT22;7272;53.668;9.578;2023-02-13T01:23:19;8.60;99.90
14378;DHT22;7272;53.668;9.578;2023-02-13T01:26:23;8.60;99.90
14378;DHT22;7272;53.668;9.578;2023-02-13T01:29:25;8.70;99.90
14378;DHT22;7272;53.668;9.578;2023-02-13T01:32:27;8.70;99.90
14378;DHT22;7272;53.668;9.578;2023-02-13T01:35:29;8.60;99.90
14378;DHT22;7272;53.668;9.578;2023-02-13T01:38:31;8.60;99.90
14378;DHT22;7272;53.668;9.578;2023-02-13T01:41:35;8.60;99.90
14378;DHT22;7272;53.668;9.578;2023-02-13T01:44:50;8.60;99.90
14378;DHT22;7272;53.668;9.578;2023-02-13T01:47:56;8.60;99.90
14378;DHT22;7272;53.668;9.578;2023-02-13T01:51:01;8.50;99.90
14378;DHT22;7272;53.668;9.578;2023-02-13T01:54:06;8.50;99.90
14378;DHT22;7272;53.668;9.578;2023-02-13T01:57:17;8.40;99.90
14378;DHT22;7272;53.668;9.578;2023-02-13T02:00:20;8.40;99.90
14378;DHT22;7272;53.668;9.578;2023-02-13T02:03:25;8.40;99.90
14378;DHT22;7272;53.668;9.578;2023-02-13T02:06:36;8.40;99.90
14378;DHT22;7272;53.668;9.578;2023-02-13T02:09:41;8.30;99.90
14378;DHT22;7272;53.668;9.578;2023-02-13T02:12:51;8.30;99.90
14378;DHT22;7272;53.668;9.578;2023-02-13T02:15:55;8.20;99.90
14378;DHT22;7272;53.668;9.578;2023-02-13T02:18:57;8.20;99.90
14378;DHT22;7272;53.668;9.578;2023-02-13T02:22:36;8.20;99.90
14378;DHT22;7272;53.668;9.578;2023-02-13T02:30:37;8.20;99.90
14378;DHT22;7272;53.668;9.578;2023-02-13T02:33:52;8.20;99.90
14378;DHT22;7272;53.668;9.578;2023-02-13T02:37:07;8.20;99.90
14378;DHT22;7272;53.668;9.578;2023-02-13T02:40:23;8.20;99.90
14378;DHT22;7272;53.668;9.578;2023-02-13T02:43:37;8.20;99.90
14378;DHT22;7272;53.668;9.578;2023-02-13T02:46:55;8.20;99.90
14378;DHT22;7272;53.668;9.578;2023-02-13T02:50:24;8.20;99.90
14378;DHT22;7272;53.668;9.578;2023-02-13T02:53:32;8.20;99.90
14378;DHT22;7272;53.668;9.578;2023-02-13T02:56:40;8.20;99.90
14378;DHT22;7272;53.668;9.578;2023-02-13T02:59:45;8.20;99.90
14378;DHT22;7272;53.668;9.578;2023-02-13T03:03:11;8.20;99.90
14378;DHT22;7272;53.668;9.578;2023-02-13T03:06:37;8.20;99.90
14378;DHT22;7272;53.668;9.578;2023-02-13T03:09:42;8.30;99.90
14378;DHT22;7272;53.668;9.578;2023-02-13T03:13:06;8.30;99.90
14378;DHT22;7272;53.668;9.578;2023-02-13T03:16:23;8.20;99.90
14378;DHT22;7272;53.668;9.578;2023-02-13T03:19:54;8.30;99.90
14378;DHT22;7272;53.668;9.578;2023-02-13T03:23:22;8.30;99.90
14378;DHT22;7272;53.668;9.578;2023-02-13T03:26:42;8.40;99.90
14378;DHT22;7272;53.668;9.578;2023-02-13T03:30:02;8.30;99.90
14378;DHT22;7272;53.668;9.578;2023-02-13T03:33:21;8.30;99.90
14378;DHT22;7272;53.668;9.578;2023-02-13T03:36:31;8.30;99.90
14378;DHT22;7272;53.668;9.578;2023-02-13T03:39:59;8.30;99.90
14378;DHT22;7272;53.668;9.578;2023-02-13T03:43:07;8.20;99.90
14378;DHT22;7272;53.668;9.578;2023-02-13T03:46:11;8.20;99.90
14378;DHT22;7272;53.668;9.578;2023-02-13T03:49:19;8.10;99.90
14378;DHT22;7272;53.668;9.578;2023-02-13T03:52:43;8.10;99.90
14378;DHT22;7272;53.668;9.578;2023-02-13T03:55:48;8.20;99.90
14378;DHT22;7272;53.668;9.578;2023-02-13T03:59:13;8.20;99.90
14378;DHT22;7272;53.668;9.578;2023-02-13T04:02:23;8.20;99.90
14378;DHT22;7272;53.668;9.578;2023-02-13T04:05:28;8.20;99.90
14378;DHT22;7272;53.668;9.578;2023-02-13T04:08:32;8.20;99.90
14378;DHT22;7272;53.668;9.578;2023-02-13T04:11:38;8.20;99.90
14378;DHT22;7272;53.668;9.578;2023-02-13T04:14:47;8.20;99.90
14378;DHT22;7272;53.668;9.578;2023-02-13T04:17:52;8.20;99.90
14378;DHT22;7272;53.668;9.578;2023-02-13T04:20:56;8.20;99.90
14378;DHT22;7272;53.668;9.578;2023-02-13T04:24:02;8.20;99.90
14378;DHT22;7272;53.668;9.578;2023-02-13T04:27:05;8.10;99.90
14378;DHT22;7272;53.668;9.578;2023-02-13T04:30:08;8.20;99.90
14378;DHT22;7272;53.668;9.578;2023-02-13T04:33:10;8.10;99.90
14378;DHT22;7272;53.668;9.578;2023-02-13T04:36:12;8.20;99.90
14378;DHT22;7272;53.668;9.578;2023-02-13T04:39:14;8.10;99.90
14378;DHT22;7272;53.668;9.578;2023-02-13T04:42:18;8.10;99.90
14378;DHT22;7272;53.668;9.578;2023-02-13T04:45:19;8.10;99.90
14378;DHT22;7272;53.668;9.578;2023-02-13T04:48:21;8.10;99.90
14378;DHT22;7272;53.668;9.578;2023-02-13T04:51:23;8.00;99.90
14378;DHT22;7272;53.668;9.578;2023-02-13T04:54:25;7.90;99.90
14378;DHT22;7272;53.668;9.578;2023-02-13T04:57:29;7.80;99.90
14378;DHT22;7272;53.668;9.578;2023-02-13T05:00:30;7.70;99.90
14378;DHT22;7272;53.668;9.578;2023-02-13T05:03:32;7.70;99.90
14378;DHT22;7272;53.668;9.578;2023-02-13T05:06:34;7.70;99.90
14378;DHT22;7272;53.668;9.578;2023-02-13T05:09:37;7.70;99.90
14378;DHT22;7272;53.668;9.578;2023-02-13T05:12:40;7.70;99.90
14378;DHT22;7272;53.668;9.578;2023-02-13T05:15:42;7.60;99.90
14378;DHT22;7272;53.668;9.578;2023-02-13T05:18:44;7.60;99.90
14378;DHT22;7272;53.668;9.578;2023-02-13T05:21:46;7.60;99.90
14378;DHT22;7272;53.668;9.578;2023-02-13T05:25:06;7.70;99.90
14378;DHT22;7272;53.668;9.578;2023-02-13T05:28:09;7.80;99.90
14378;DHT22;7272;53.668;9.578;2023-02-13T05:31:25;7.80;99.90
14378;DHT22;7272;53.668;9.578;2023-02-13T05:34:27;7.90;99.90
14378;DHT22;7272;53.668;9.578;2023-02-13T05:37:29;8.10;99.90
14378;DHT22;7272;53.668;9.578;2023-02-13T05:40:31;8.10;99.90
14378;DHT22;7272;53.668;9.578;2023-02-13T05:43:35;8.10;99.90
14378;DHT22;7272;53.668;9.578;2023-02-13T05:46:37;8.10;99.90
14378;DHT22;7272;53.668;9.578;2023-02-13T05:49:39;8.20;99.90
14378;DHT22;7272;53.668;9.578;2023-02-13T05:52:41;8.10;99.90
14378;DHT22;7272;53.668;9.578;2023-02-13T05:55:43;8.00;99.90
14378;DHT22;7272;53.668;9.578;2023-02-13T05:58:46;8.00;99.90
14378;DHT22;7272;53.668;9.578;2023-02-13T06:01:48;8.00;99.90
14378;DHT22;7272;53.668;9.578;2023-02-13T06:04:50;8.00;99.90
14378;DHT22;7272;53.668;9.578;2023-02-13T06:07:51;8.00;99.90
14378;DHT22;7272;53.668;9.578;2023-02-13T06:10:53;8.10;99.90
14378;DHT22;7272;53.668;9.578;2023-02-13T06:13:57;8.10;99.90
14378;DHT22;7272;53.668;9.578;2023-02-13T06:16:59;8.10;99.90
14378;DHT22;7272;53.668;9.578;2023-02-13T06:20:01;8.10;99.90
14378;DHT22;7272;53.668;9.578;2023-02-13T06:23:03;8.10;99.90
14378;DHT22;7272;53.668;9.578;2023-02-13T06:26:07;8.10;99.90
14378;DHT22;7272;53.668;9.578;2023-02-13T06:29:11;8.10;99.90
14378;DHT22;7272;53.668;9.578;2023-02-13T06:32:13;8.10;99.90
14378;DHT22;7272;53.668;9.578;2023-02-13T06:35:15;8.10;99.90
14378;DHT22;7272;53.668;9.578;2023-02-13T06:38:17;8.10;99.90
14378;DHT22;7272;53.668;9.578;2023-02-13T06:41:19;8.10;99.90
14378;DHT22;7272;53.668;9.578;2023-02-13T06:44:23;8.10;99.90
14378;DHT22;7272;53.668;9.578;2023-02-13T06:47:25;8.10;99.90
14378;DHT22;7272;53.668;9.578;2023-02-13T06:50:27;8.10;99.90
14378;DHT22;7272;53.668;9.578;2023-02-13T06:53:29;8.10;99.90
14378;DHT22;7272;53.668;9.578;2023-02-13T06:56:31;8.10;99.90
14378;DHT22;7272;53.668;9.578;2023-02-13T06:59:34;8.10;99.90
14378;DHT22;7272;53.668;9.578;2023-02-13T07:02:36;8.10;99.90
14378;DHT22;7272;53.668;9.578;2023-02-13T07:05:39;8.10;99.90
14378;DHT22;7272;53.668;9.578;2023-02-13T07:08:41;8.10;99.90
14378;DHT22;7272;53.668;9.578;2023-02-13T07:11:43;8.10;99.90
14378;DHT22;7272;53.668;9.578;2023-02-13T07:14:46;8.00;99.90
14378;DHT22;7272;53.668;9.578;2023-02-13T07:17:54;8.00;99.90
14378;DHT22;7272;53.668;9.578;2023-02-13T07:20:57;8.00;99.90
14378;DHT22;7272;53.668;9.578;2023-02-13T07:23:58;8.00;99.90
14378;DHT22;7272;53.668;9.578;2023-02-13T07:27:00;8.00;99.90
14378;DHT22;7272;53.668;9.578;2023-02-13T07:30:05;7.90;99.90
14378;DHT22;7272;53.668;9.578;2023-02-13T07:33:08;7.90;99.90
14378;DHT22;7272;53.668;9.578;2023-02-13T07:36:10;7.80;99.90
14378;DHT22;7272;53.668;9.578;2023-02-13T07:39:12;7.90;99.90
14378;DHT22;7272;53.668;9.578;2023-02-13T07:42:14;8.00;99.90
14378;DHT22;7272;53.668;9.578;2023-02-13T07:45:17;8.00;99.90
14378;DHT22;7272;53.668;9.578;2023-02-13T07:48:20;8.10;99.90
14378;DHT22;7272;53.668;9.578;2023-02-13T07:51:22;8.20;99.90
14378;DHT22;7272;53.668;9.578;2023-02-13T07:54:24;8.20;99.90
14378;DHT22;7272;53.668;9.578;2023-02-13T07:57:26;8.30;99.90
14378;DHT22;7272;53.668;9.578;2023-02-13T08:00:30;8.30;99.90
14378;DHT22;7272;53.668;9.578;2023-02-13T08:03:32;8.30;99.90
14378;DHT22;7272;53.668;9.578;2023-02-13T08:06:33;8.30;99.90
14378;DHT22;7272;53.668;9.578;2023-02-13T08:09:35;8.30;99.90
14378;DHT22;7272;53.668;9.578;2023-02-13T08:12:57;8.30;99.90
14378;DHT22;7272;53.668;9.578;2023-02-13T08:16:01;8.30;99.90
14378;DHT22;7272;53.668;9.578;2023-02-13T08:19:02;8.40;99.90
14378;DHT22;7272;53.668;9.578;2023-02-13T08:22:04;8.50;99.90
14378;DHT22;7272;53.668;9.578;2023-02-13T08:25:07;8.40;99.90
14378;DHT22;7272;53.668;9.578;2023-02-13T08:28:09;8.40;99.90
14378;DHT22;7272;53.668;9.578;2023-02-13T08:31:12;8.40;99.90
14378;DHT22;7272;53.668;9.578;2023-02-13T08:34:14;8.40;99.90
14378;DHT22;7272;53.668;9.578;2023-02-13T08:37:16;8.40;99.90
14378;DHT22;7272;53.668;9.578;2023-02-13T08:40:19;8.40;99.90
14378;DHT22;7272;53.668;9.578;2023-02-13T08:43:21;8.40;99.90
14378;DHT22;7272;53.668;9.578;2023-02-13T08:46:24;8.50;99.90
14378;DHT22;7272;53.668;9.578;2023-02-13T08:49:26;8.60;99.90
14378;DHT22;7272;53.668;9.578;2023-02-13T08:52:28;8.70;99.90
14378;DHT22;7272;53.668;9.578;2023-02-13T08:55:30;8.70;99.90
14378;DHT22;7272;53.668;9.578;2023-02-13T08:58:32;8.80;99.90
14378;DHT22;7272;53.668;9.578;2023-02-13T09:01:35;8.80;99.90
14378;DHT22;7272;53.668;9.578;2023-02-13T09:04:37;8.70;99.90
14378;DHT22;7272;53.668;9.578;2023-02-13T09:07:39;8.70;99.90
14378;DHT22;7272;53.668;9.578;2023-02-13T09:10:41;8.60;99.90
14378;DHT22;7272;53.668;9.578;2023-02-13T09:13:44;8.60;99.90
14378;DHT22;7272;53.668;9.578;2023-02-13T09:16:49;8.70;99.90
14378;DHT22;7272;53.668;9.578;2023-02-13T09:19:51;8.70;99.90
14378;DHT22;7272;53.668;9.578;2023-02-13T09:22:54;8.60;99.90
14378;DHT22;7272;53.668;9.578;2023-02-13T09:25:58;8.70;99.90
14378;DHT22;7272;53.668;9.578;2023-02-13T09:28:59;8.60;99.90
14378;DHT22;7272;53.668;9.578;2023-02-13T09:32:03;8.60;99.90
14378;DHT22;7272;53.668;9.578;2023-02-13T09:35:05;8.60;99.90
14378;DHT22;7272;53.668;9.578;2023-02-13T09:38:07;8.70;99.90
14378;DHT22;7272;53.668;9.578;2023-02-13T09:41:11;8.70;99.90
14378;DHT22;7272;53.668;9.578;2023-02-13T09:44:19;8.70;99.90
14378;DHT22;7272;53.668;9.578;2023-02-13T09:47:41;8.80;99.90
14378;DHT22;7272;53.668;9.578;2023-02-13T09:50:45;8.80;99.90
14378;DHT22;7272;53.668;9.578;2023-02-13T09:53:51;8.80;99.90
14378;DHT22;7272;53.668;9.578;2023-02-13T09:56:56;8.80;99.90
14378;DHT22;7272;53.668;9.578;2023-02-13T10:00:05;8.80;99.90
14378;DHT22;7272;53.668;9.578;2023-02-13T10:03:27;8.80;99.90
14378;DHT22;7272;53.668;9.578;2023-02-13T10:06:33;8.90;99.90
14378;DHT22;7272;53.668;9.578;2023-02-13T10:09:56;8.90;99.90
14378;DHT22;7272;53.668;9.578;2023-02-13T10:13:10;9.00;99.90
14378;DHT22;7272;53.668;9.578;2023-02-13T10:16:16;9.00;99.90
14378;DHT22;7272;53.668;9.578;2023-02-13T10:19:32;9.10;99.90
14378;DHT22;7272;53.668;9.578;2023-02-13T10:22:39;9.10;99.90
14378;DHT22;7272;53.668;9.578;2023-02-13T10:25:48;9.00;99.90
14378;DHT22;7272;53.668;9.578;2023-02-13T10:28:56;8.90;99.90
14378;DHT22;7272;53.668;9.578;2023-02-13T10:32:23;8.90;99.90
14378;DHT22;7272;53.668;9.578;2023-02-13T10:35:29;8.90;99.90
14378;DHT22;7272;53.668;9.578;2023-02-13T10:38:33;8.80;99.90
14378;DHT22;7272;53.668;9.578;2023-02-13T10:41:43;8.90;99.90
14378;DHT22;7272;53.668;9.578;2023-02-13T10:45:00;8.90;99.90
14378;DHT22;7272;53.668;9.578;2023-02-13T10:48:13;8.90;99.90
14378;DHT22;7272;53.668;9.578;2023-02-13T10:51:26;9.00;99.90
14378;DHT22;7272;53.668;9.578;2023-02-13T10:54:48;9.00;99.90
14378;DHT22;7272;53.668;9.578;2023-02-13T10:58:06;9.00;99.90
14378;DHT22;7272;53.668;9.578;2023-02-13T11:01:13;9.00;99.90
14378;DHT22;7272;53.668;9.578;2023-02-13T11:04:18;8.90;99.90
14378;DHT22;7272;53.668;9.578;2023-02-13T11:07:23;9.00;99.90
14378;DHT22;7272;53.668;9.578;2023-02-13T11:10:26;8.90;99.90
14378;DHT22;7272;53.668;9.578;2023-02-13T11:13:28;9.00;99.90
14378;DHT22;7272;53.668;9.578;2023-02-13T11:16:38;9.00;99.90
14378;DHT22;7272;53.668;9.578;2023-02-13T11:19:48;9.00;99.90
14378;DHT22;7272;53.668;9.578;2023-02-13T11:22:54;9.00;99.90
14378;DHT22;7272;53.668;9.578;2023-02-13T11:25:58;9.00;99.90
14378;DHT22;7272;53.668;9.578;2023-02-13T11:29:05;9.10;99.90
14378;DHT22;7272;53.668;9.578;2023-02-13T11:32:20;9.10;99.90
14378;DHT22;7272;53.668;9.578;2023-02-13T11:35:28;9.10;99.90
14378;DHT22;7272;53.668;9.578;2023-02-13T11:38:31;9.20;99.90
14378;DHT22;7272;53.668;9.578;2023-02-13T11:41:39;9.20;99.90
14378;DHT22;7272;53.668;9.578;2023-02-13T11:44:43;9.20;99.90
14378;DHT22;7272;53.668;9.578;2023-02-13T11:47:49;9.30;99.90
14378;DHT22;7272;53.668;9.578;2023-02-13T11:50:53;9.40;99.90
14378;DHT22;7272;53.668;9.578;2023-02-13T11:53:57;9.40;99.90
14378;DHT22;7272;53.668;9.578;2023-02-13T11:57:02;9.40;99.90
14378;DHT22;7272;53.668;9.578;2023-02-13T12:00:27;9.40;99.90
14378;DHT22;7272;53.668;9.578;2023-02-13T12:03:32;9.40;99.90
14378;DHT22;7272;53.668;9.578;2023-02-13T12:06:34;9.30;99.90
14378;DHT22;7272;53.668;9.578;2023-02-13T12:09:43;9.20;99.90
14378;DHT22;7272;53.668;9.578;2023-02-13T12:12:53;9.20;99.90
14378;DHT22;7272;53.668;9.578;2023-02-13T12:16:00;9.20;99.90
14378;DHT22;7272;53.668;9.578;2023-02-13T12:19:05;9.20;99.90
14378;DHT22;7272;53.668;9.578;2023-02-13T12:22:30;9.30;99.90
14378;DHT22;7272;53.668;9.578;2023-02-13T12:25:52;9.40;99.90
14378;DHT22;7272;53.668;9.578;2023-02-13T12:29:13;9.40;99.90
14378;DHT22;7272;53.668;9.578;2023-02-13T12:32:19;9.30;99.90
14378;DHT22;7272;53.668;9.578;2023-02-13T12:35:36;9.40;99.90
14378;DHT22;7272;53.668;9.578;2023-02-13T12:38:47;9.40;99.90
14378;DHT22;7272;53.668;9.578;2023-02-13T12:42:09;9.40;99.90
14378;DHT22;7272;53.668;9.578;2023-02-13T12:45:28;9.40;99.90
14378;DHT22;7272;53.668;9.578;2023-02-13T12:48:39;9.40;99.90
14378;DHT22;7272;53.668;9.578;2023-02-13T12:51:52;9.40;99.90
14378;DHT22;7272;53.668;9.578;2023-02-13T12:55:08;9.40;99.90
14378;DHT22;7272;53.668;9.578;2023-02-13T12:58:31;9.30;99.90
14378;DHT22;7272;53.668;9.578;2023-02-13T13:01:53;9.30;99.90
14378;DHT22;7272;53.668;9.578;2023-02-13T13:05:07;9.20;99.90
14378;DHT22;7272;53.668;9.578;2023-02-13T13:08:26;9.20;99.90
14378;DHT22;7272;53.668;9.578;2023-02-13T13:11:50;9.10;99.90
14378;DHT22;7272;53.668;9.578;2023-02-13T13:15:05;9.00;99.90
14378;DHT22;7272;53.668;9.578;2023-02-13T13:18:22;9.00;99.90
14378;DHT22;7272;53.668;9.578;2023-02-13T13:21:34;9.00;99.90
14378;DHT22;7272;53.668;9.578;2023-02-13T13:24:47;9.00;99.90
14378;DHT22;7272;53.668;9.578;2023-02-13T13:27:52;9.00;99.90
14378;DHT22;7272;53.668;9.578;2023-02-13T13:30:57;8.90;99.90
14378;DHT22;7272;53.668;9.578;2023-02-13T13:34:02;8.90;99.90
14378;DHT22;7272;53.668;9.578;2023-02-13T13:37:10;8.90;99.90
14378;DHT22;7272;53.668;9.578;2023-02-13T13:40:26;8.90;99.90
14378;DHT22;7272;53.668;9.578;2023-02-13T13:43:38;8.90;99.90
14378;DHT22;7272;53.668;9.578;2023-02-13T13:46:49;8.90;99.90
14378;DHT22;7272;53.668;9.578;2023-02-13T13:49:56;8.90;99.90
14378;DHT22;7272;53.668;9.578;2023-02-13T13:53:10;8.80;99.90
14378;DHT22;7272;53.668;9.578;2023-02-13T13:56:13;8.70;99.90
14378;DHT22;7272;53.668;9.578;2023-02-13T13:59:16;8.70;99.90
14378;DHT22;7272;53.668;9.578;2023-02-13T14:02:48;8.70;99.90
14378;DHT22;7272;53.668;9.578;2023-02-13T14:05:59;8.60;99.90
14378;DHT22;7272;53.668;9.578;2023-02-13T14:09:35;8.70;99.90
14378;DHT22;7272;53.668;9.578;2023-02-13T14:12:45;8.70;99.90
14378;DHT22;7272;53.668;9.578;2023-02-13T14:15:51;8.60;99.90
14378;DHT22;7272;53.668;9.578;2023-02-13T14:18:56;8.50;99.90
14378;DHT22;7272;53.668;9.578;2023-02-13T14:25:32;8.60;99.90
14378;DHT22;7272;53.668;9.578;2023-02-13T14:28:34;8.50;99.90
14378;DHT22;7272;53.668;9.578;2023-02-13T14:31:38;8.40;99.90
14378;DHT22;7272;53.668;9.578;2023-02-13T14:34:50;8.30;99.90
14378;DHT22;7272;53.668;9.578;2023-02-13T14:37:54;8.30;99.90
14378;DHT22;7272;53.668;9.578;2023-02-13T14:40:58;8.30;99.90
14378;DHT22;7272;53.668;9.578;2023-02-13T14:44:00;8.30;99.90
14378;DHT22;7272;53.668;9.578;2023-02-13T14:47:03;8.30;99.90
14378;DHT22;7272;53.668;9.578;2023-02-13T14:50:16;8.30;99.90
14378;DHT22;7272;53.668;9.578;2023-02-13T14:53:23;8.30;99.90
14378;DHT22;7272;53.668;9.578;2023-02-13T14:56:26;8.30;99.90
14378;DHT22;7272;53.668;9.578;2023-02-13T14:59:33;8.20;99.90
14378;DHT22;7272;53.668;9.578;2023-02-13T15:02:41;8.20;99.90
14378;DHT22;7272;53.668;9.578;2023-02-13T15:05:50;8.30;99.90
14378;DHT22;7272;53.668;9.578;2023-02-13T15:08:53;8.30;99.90
14378;DHT22;7272;53.668;9.578;2023-02-13T15:11:56;8.30;99.90
14378;DHT22;7272;53.668;9.578;2023-02-13T15:14:59;8.30;99.90
14378;DHT22;7272;53.668;9.578;2023-02-13T15:18:07;8.40;99.90
14378;DHT22;7272;53.668;9.578;2023-02-13T15:21:14;8.40;99.90
14378;DHT22;7272;53.668;9.578;2023-02-13T15:24:16;8.30;99.90
14378;DHT22;7272;53.668;9.578;2023-02-13T15:27:20;8.30;99.90
14378;DHT22;7272;53.668;9.578;2023-02-13T15:30:26;8.40;99.90
14378;DHT22;7272;53.668;9.578;2023-02-13T15:33:32;8.30;99.90
14378;DHT22;7272;53.668;9.578;2023-02-13T15:36:39;8.30;99.90
14378;DHT22;7272;53.668;9.578;2023-02-13T15:39:42;8.20;99.90
14378;DHT22;7272;53.668;9.578;2023-02-13T15:42:43;8.20;99.90
14378;DHT22;7272;53.668;9.578;2023-02-13T15:45:46;8.20;99.90
14378;DHT22;7272;53.668;9.578;2023-02-13T15:48:48;8.20;99.90
14378;DHT22;7272;53.668;9.578;2023-02-13T15:52:01;8.40;99.90
14378;DHT22;7272;53.668;9.578;2023-02-13T15:55:04;8.40;99.90
14378;DHT22;7272;53.668;9.578;2023-02-13T15:58:10;8.40;99.90
14378;DHT22;7272;53.668;9.578;2023-02-13T16:01:15;8.40;99.90
14378;DHT22;7272;53.668;9.578;2023-02-13T16:04:19;8.40;99.90
14378;DHT22;7272;53.668;9.578;2023-02-13T16:07:23;8.40;99.90
14378;DHT22;7272;53.668;9.578;2023-02-13T16:10:27;8.40;99.90
14378;DHT22;7272;53.668;9.578;2023-02-13T16:13:29;8.50;99.90
14378;DHT22;7272;53.668;9.578;2023-02-13T16:16:34;8.60;99.90
14378;DHT22;7272;53.668;9.578;2023-02-13T16:19:43;8.50;99.90
14378;DHT22;7272;53.668;9.578;2023-02-13T16:22:50;8.50;99.90
14378;DHT22;7272;53.668;9.578;2023-02-13T16:26:00;8.50;99.90
14378;DHT22;7272;53.668;9.578;2023-02-13T16:29:08;8.50;99.90
14378;DHT22;7272;53.668;9.578;2023-02-13T16:32:18;8.60;99.90
14378;DHT22;7272;53.668;9.578;2023-02-13T16:35:27;8.60;99.90
14378;DHT22;7272;53.668;9.578;2023-02-13T16:38:33;8.60;99.90
14378;DHT22;7272;53.668;9.578;2023-02-13T16:41:35;8.60;99.90
14378;DHT22;7272;53.668;9.578;2023-02-13T16:44:37;8.60;99.90
14378;DHT22;7272;53.668;9.578;2023-02-13T16:47:39;8.60;99.90
14378;DHT22;7272;53.668;9.578;2023-02-13T16:50:41;8.70;99.90
14378;DHT22;7272;53.668;9.578;2023-02-13T16:53:44;8.70;99.90
14378;DHT22;7272;53.668;9.578;2023-02-13T16:56:48;8.60;99.90
14378;DHT22;7272;53.668;9.578;2023-02-13T16:59:57;8.40;99.90
14378;DHT22;7272;53.668;9.578;2023-02-13T17:02:59;8.30;99.90
14378;DHT22;7272;53.668;9.578;2023-02-13T17:06:01;8.30;99.90
14378;DHT22;7272;53.668;9.578;2023-02-13T17:09:05;8.30;99.90
14378;DHT22;7272;53.668;9.578;2023-02-13T17:12:12;8.30;99.90
14378;DHT22;7272;53.668;9.578;2023-02-13T17:15:17;8.40;99.90
14378;DHT22;7272;53.668;9.578;2023-02-13T17:18:20;8.40;99.90
14378;DHT22;7272;53.668;9.578;2023-02-13T17:21:22;8.30;99.90
14378;DHT22;7272;53.668;9.578;2023-02-13T17:24:25;8.40;99.90
14378;DHT22;7272;53.668;9.578;2023-02-13T17:27:27;8.40;99.90
14378;DHT22;7272;53.668;9.578;2023-02-13T17:30:30;8.50;99.90
14378;DHT22;7272;53.668;9.578;2023-02-13T17:33:33;8.60;99.90
14378;DHT22;7272;53.668;9.578;2023-02-13T17:36:37;8.60;99.90
14378;DHT22;7272;53.668;9.578;2023-02-13T17:39:41;8.40;99.90
14378;DHT22;7272;53.668;9.578;2023-02-13T17:42:44;8.50;99.90
14378;DHT22;7272;53.668;9.578;2023-02-13T17:45:47;8.50;99.90
14378;DHT22;7272;53.668;9.578;2023-02-13T17:48:49;8.50;99.90
14378;DHT22;7272;53.668;9.578;2023-02-13T17:51:51;8.50;99.90
14378;DHT22;7272;53.668;9.578;2023-02-13T17:54:54;8.40;99.90
14378;DHT22;7272;53.668;9.578;2023-02-13T17:57:57;8.40;99.90
14378;DHT22;7272;53.668;9.578;2023-02-13T18:00:59;8.40;99.90
14378;DHT22;7272;53.668;9.578;2023-02-13T18:04:01;8.30;99.90
14378;DHT22;7272;53.668;9.578;2023-02-13T18:07:03;8.30;99.90
14378;DHT22;7272;53.668;9.578;2023-02-13T18:10:09;8.30;99.90
14378;DHT22;7272;53.668;9.578;2023-02-13T18:13:11;8.20;99.90
14378;DHT22;7272;53.668;9.578;2023-02-13T18:16:14;8.20;99.90
14378;DHT22;7272;53.668;9.578;2023-02-13T18:19:16;8.10;99.90
14378;DHT22;7272;53.668;9.578;2023-02-13T18:22:18;8.00;99.90
14378;DHT22;7272;53.668;9.578;2023-02-13T18:25:21;8.00;99.90
14378;DHT22;7272;53.668;9.578;2023-02-13T18:28:23;8.00;99.90
14378;DHT22;7272;53.668;9.578;2023-02-13T18:31:25;8.10;99.90
14378;DHT22;7272;53.668;9.578;2023-02-13T18:34:27;8.10;99.90
14378;DHT22;7272;53.668;9.578;2023-02-13T18:37:29;8.10;99.90
14378;DHT22;7272;53.668;9.578;2023-02-13T18:40:34;8.10;99.90
14378;DHT22;7272;53.668;9.578;2023-02-13T18:43:36;8.10;99.90
14378;DHT22;7272;53.668;9.578;2023-02-13T18:46:38;8.10;99.90
14378;DHT22;7272;53.668;9.578;2023-02-13T18:49:41;8.10;99.90
14378;DHT22;7272;53.668;9.578;2023-02-13T18:52:44;8.10;99.90
14378;DHT22;7272;53.668;9.578;2023-02-13T18:55:48;8.10;99.90
14378;DHT22;7272;53.668;9.578;2023-02-13T18:58:50;8.10;99.90
14378;DHT22;7272;53.668;9.578;2023-02-13T19:01:52;8.00;99.90
14378;DHT22;7272;53.668;9.578;2023-02-13T19:04:54;8.00;99.90
14378;DHT22;7272;53.668;9.578;2023-02-13T19:07:56;8.10;99.90
14378;DHT22;7272;53.668;9.578;2023-02-13T19:11:00;8.10;99.90
14378;DHT22;7272;53.668;9.578;2023-02-13T19:14:02;8.10;99.90
14378;DHT22;7272;53.668;9.578;2023-02-13T19:17:05;8.10;99.90
14378;DHT22;7272;53.668;9.578;2023-02-13T19:20:08;8.10;99.90
14378;DHT22;7272;53.668;9.578;2023-02-13T19:23:10;8.10;99.90
14378;DHT22;7272;53.668;9.578;2023-02-13T19:26:15;8.10;99.90
14378;DHT22;7272;53.668;9.578;2023-02-13T19:29:17;8.10;99.90
14378;DHT22;7272;53.668;9.578;2023-02-13T19:32:19;8.10;99.90
14378;DHT22;7272;53.668;9.578;2023-02-13T19:35:21;8.10;99.90
14378;DHT22;7272;53.668;9.578;2023-02-13T19:38:23;8.10;99.90
14378;DHT22;7272;53.668;9.578;2023-02-13T19:41:26;8.00;99.90
14378;DHT22;7272;53.668;9.578;2023-02-13T19:44:29;8.00;99.90
14378;DHT22;7272;53.668;9.578;2023-02-13T19:47:30;8.00;99.90
14378;DHT22;7272;53.668;9.578;2023-02-13T19:50:32;8.00;99.90
14378;DHT22;7272;53.668;9.578;2023-02-13T19:53:35;8.10;99.90
14378;DHT22;7272;53.668;9.578;2023-02-13T19:56:39;8.10;99.90
14378;DHT22;7272;53.668;9.578;2023-02-13T19:59:41;8.00;99.90
14378;DHT22;7272;53.668;9.578;2023-02-13T20:02:42;7.90;99.90
14378;DHT22;7272;53.668;9.578;2023-02-13T20:05:44;7.90;99.90
14378;DHT22;7272;53.668;9.578;2023-02-13T20:08:46;7.90;99.90
14378;DHT22;7272;53.668;9.578;2023-02-13T20:11:50;7.90;99.90
14378;DHT22;7272;53.668;9.578;2023-02-13T20:14:53;8.00;99.90
14378;DHT22;7272;53.668;9.578;2023-02-13T20:17:55;8.00;99.90
14378;DHT22;7272;53.668;9.578;2023-02-13T20:20:57;8.00;99.90
14378;DHT22;7272;53.668;9.578;2023-02-13T20:23:59;7.90;99.90